sensor_id;sensor_type;location;lat;lon;timestamp;P1;P2;P0
65574;PMS5003;52216;54.942;73.394;2023-05-15T00:01:05;55.50;45.00;27.50
65574;PMS5003;52216;54.942;73.394;2023-05-15T00:04:08;57.75;47.50;29.50
65574;PMS5003;52216;54.942;73.394;2023-05-15T00:07:10;57.50;46.00;28.50
65574;PMS5003;52216;54.942;73.394;2023-05-15T00:10:13;55.00;43.20;27.00
65574;PMS5003;52216;54.942;73.394;2023-05-15T00:13:16;56.60;45.00;28.60
65574;PMS5003;52216;54.942;73.394;2023-05-15T00:16:19;57.00;45.00;29.00
65574;PMS5003;52216;54.942;73.394;2023-05-15T00:19:21;56.00;45.00;29.50
65574;PMS5003;52216;54.942;73.394;2023-05-15T00:22:23;54.00;43.00;29.00
65574;PMS5003;52216;54.942;73.394;2023-05-15T00:25:27;53.20;41.60;27.00
65574;PMS5003;52216;54.942;73.394;2023-05-15T00:28:30;56.00;44.20;27.20
65574;PMS5003;52216;54.942;73.394;2023-05-15T00:31:33;53.00;42.00;27.00
65574;PMS5003;52216;54.942;73.394;2023-05-15T00:34:35;55.25;42.50;27.00
65574;PMS5003;52216;54.942;73.394;2023-05-15T00:37:38;54.00;42.75;27.00
65574;PMS5003;52216;54.942;73.394;2023-05-15T00:40:41;54.50;43.75;29.00
65574;PMS5003;52216;54.942;73.394;2023-05-15T00:43:44;55.50;45.00;28.25
65574;PMS5003;52216;54.942;73.394;2023-05-15T00:46:47;54.00;42.50;29.00
65574;PMS5003;52216;54.942;73.394;2023-05-15T00:49:50;55.50;45.00;29.00
65574;PMS5003;52216;54.942;73.394;2023-05-15T00:52:54;56.00;44.50;29.00
65574;PMS5003;52216;54.942;73.394;2023-05-15T00:55:57;57.75;46.50;29.00
65574;PMS5003;52216;54.942;73.394;2023-05-15T00:58:59;57.00;45.50;29.00
65574;PMS5003;52216;54.942;73.394;2023-05-15T01:02:03;59.00;49.50;30.75
65574;PMS5003;52216;54.942;73.394;2023-05-15T01:05:06;59.00;50.50;32.00
65574;PMS5003;52216;54.942;73.394;2023-05-15T01:11:26;59.00;49.00;31.00
65574;PMS5003;52216;54.942;73.394;2023-05-15T01:14:28;57.25;47.75;31.00
65574;PMS5003;52216;54.942;73.394;2023-05-15T01:17:31;59.00;50.00;31.00
65574;PMS5003;52216;54.942;73.394;2023-05-15T01:27:17;61.00;50.50;32.00
65574;PMS5003;52216;54.942;73.394;2023-05-15T01:30:21;63.50;54.00;35.50
65574;PMS5003;52216;54.942;73.394;2023-05-15T01:33:27;65.00;58.25;36.25
65574;PMS5003;52216;54.942;73.394;2023-05-15T01:36:55;59.00;52.33;33.33
65574;PMS5003;52216;54.942;73.394;2023-05-15T01:40:02;62.00;53.75;34.00
65574;PMS5003;52216;54.942;73.394;2023-05-15T01:43:07;61.25;51.00;33.00
65574;PMS5003;52216;54.942;73.394;2023-05-15T01:46:11;63.00;53.75;34.75
65574;PMS5003;52216;54.942;73.394;2023-05-15T01:49:16;61.75;52.50;33.00
65574;PMS5003;52216;54.942;73.394;2023-05-15T01:52:26;62.50;53.75;33.25
65574;PMS5003;52216;54.942;73.394;2023-05-15T01:55:29;60.00;49.25;31.75
65574;PMS5003;52216;54.942;73.394;2023-05-15T01:58:32;62.00;51.00;33.00
65574;PMS5003;52216;54.942;73.394;2023-05-15T02:01:36;58.40;48.00;30.00
65574;PMS5003;52216;54.942;73.394;2023-05-15T02:04:39;58.00;47.50;29.00
65574;PMS5003;52216;54.942;73.394;2023-05-15T02:07:41;58.00;48.25;30.50
65574;PMS5003;52216;54.942;73.394;2023-05-15T02:10:44;59.50;49.00;30.50
65574;PMS5003;52216;54.942;73.394;2023-05-15T02:13:47;60.75;50.00;32.00
65574;PMS5003;52216;54.942;73.394;2023-05-15T02:16:50;61.00;50.25;31.00
65574;PMS5003;52216;54.942;73.394;2023-05-15T02:19:54;61.50;51.25;31.75
65574;PMS5003;52216;54.942;73.394;2023-05-15T02:22:57;64.00;55.50;32.00
65574;PMS5003;52216;54.942;73.394;2023-05-15T02:26:03;60.00;47.00;29.00
65574;PMS5003;52216;54.942;73.394;2023-05-15T02:29:14;57.50;45.25;29.00
65574;PMS5003;52216;54.942;73.394;2023-05-15T02:35:53;61.00;49.75;30.50
65574;PMS5003;52216;54.942;73.394;2023-05-15T02:38:58;62.25;52.50;31.00
65574;PMS5003;52216;54.942;73.394;2023-05-15T02:42:03;61.00;50.50;29.00
65574;PMS5003;52216;54.942;73.394;2023-05-15T02:45:06;61.50;51.00;30.50
65574;PMS5003;52216;54.942;73.394;2023-05-15T02:48:09;61.50;48.00;30.00
65574;PMS5003;52216;54.942;73.394;2023-05-15T02:51:11;62.25;49.50;30.25
65574;PMS5003;52216;54.942;73.394;2023-05-15T02:54:14;58.75;46.00;29.00
65574;PMS5003;52216;54.942;73.394;2023-05-15T02:57:17;57.50;46.00;29.00
65574;PMS5003;52216;54.942;73.394;2023-05-15T03:00:19;55.75;45.50;28.50
65574;PMS5003;52216;54.942;73.394;2023-05-15T03:03:22;55.00;44.25;27.25
65574;PMS5003;52216;54.942;73.394;2023-05-15T03:06:24;54.00;43.50;28.00
65574;PMS5003;52216;54.942;73.394;2023-05-15T03:09:28;53.50;42.75;27.00
65574;PMS5003;52216;54.942;73.394;2023-05-15T03:12:37;55.50;43.75;27.00
65574;PMS5003;52216;54.942;73.394;2023-05-15T03:15:41;56.00;43.50;27.00
65574;PMS5003;52216;54.942;73.394;2023-05-15T03:18:44;56.00;43.00;26.00
65574;PMS5003;52216;54.942;73.394;2023-05-15T03:21:47;53.25;42.00;27.00
65574;PMS5003;52216;54.942;73.394;2023-05-15T03:24:49;52.75;41.50;27.00
65574;PMS5003;52216;54.942;73.394;2023-05-15T03:27:51;52.50;41.00;25.00
65574;PMS5003;52216;54.942;73.394;2023-05-15T03:30:53;46.25;37.50;23.00
65574;PMS5003;52216;54.942;73.394;2023-05-15T03:33:55;47.00;37.00;24.00
65574;PMS5003;52216;54.942;73.394;2023-05-15T03:36:57;47.00;36.75;23.00
65574;PMS5003;52216;54.942;73.394;2023-05-15T03:39:59;46.00;36.00;22.50
65574;PMS5003;52216;54.942;73.394;2023-05-15T03:43:03;41.80;33.00;22.00
65574;PMS5003;52216;54.942;73.394;2023-05-15T03:46:06;37.20;30.00;19.60
65574;PMS5003;52216;54.942;73.394;2023-05-15T03:49:08;40.00;32.00;20.00
65574;PMS5003;52216;54.942;73.394;2023-05-15T03:52:10;39.00;31.00;20.00
65574;PMS5003;52216;54.942;73.394;2023-05-15T03:55:13;36.50;30.00;20.00
65574;PMS5003;52216;54.942;73.394;2023-05-15T03:58:16;40.00;31.50;19.75
65574;PMS5003;52216;54.942;73.394;2023-05-15T04:01:18;39.33;31.00;19.00
65574;PMS5003;52216;54.942;73.394;2023-05-15T04:04:20;39.00;31.00;19.00
65574;PMS5003;52216;54.942;73.394;2023-05-15T04:07:23;40.25;32.75;21.00
65574;PMS5003;52216;54.942;73.394;2023-05-15T04:10:25;40.00;33.50;20.50
65574;PMS5003;52216;54.942;73.394;2023-05-15T04:13:27;40.00;33.00;21.00
65574;PMS5003;52216;54.942;73.394;2023-05-15T04:16:30;40.20;32.00;20.00
65574;PMS5003;52216;54.942;73.394;2023-05-15T04:19:33;42.50;33.75;20.00
65574;PMS5003;52216;54.942;73.394;2023-05-15T04:22:38;44.00;35.00;21.00
65574;PMS5003;52216;54.942;73.394;2023-05-15T04:25:41;44.00;35.20;21.00
65574;PMS5003;52216;54.942;73.394;2023-05-15T04:28:47;42.50;35.00;22.00
65574;PMS5003;52216;54.942;73.394;2023-05-15T04:31:49;41.50;34.25;20.00
65574;PMS5003;52216;54.942;73.394;2023-05-15T04:34:51;40.00;32.75;19.00
65574;PMS5003;52216;54.942;73.394;2023-05-15T04:38:18;42.67;34.33;20.33
65574;PMS5003;52216;54.942;73.394;2023-05-15T04:41:20;42.25;34.00;20.50
65574;PMS5003;52216;54.942;73.394;2023-05-15T04:44:24;39.00;31.50;19.75
65574;PMS5003;52216;54.942;73.394;2023-05-15T04:47:26;37.00;31.00;20.00
65574;PMS5003;52216;54.942;73.394;2023-05-15T04:50:29;39.75;31.75;20.50
65574;PMS5003;52216;54.942;73.394;2023-05-15T04:53:31;36.25;29.50;19.00
65574;PMS5003;52216;54.942;73.394;2023-05-15T04:56:34;33.00;29.75;18.00
65574;PMS5003;52216;54.942;73.394;2023-05-15T04:59:38;35.60;31.60;19.60
65574;PMS5003;52216;54.942;73.394;2023-05-15T05:02:46;37.00;31.40;20.00
65574;PMS5003;52216;54.942;73.394;2023-05-15T05:05:55;37.00;32.20;20.80
65574;PMS5003;52216;54.942;73.394;2023-05-15T05:08:59;35.00;29.40;19.00
65574;PMS5003;52216;54.942;73.394;2023-05-15T05:12:01;39.75;32.25;19.00
65574;PMS5003;52216;54.942;73.394;2023-05-15T05:15:04;38.00;32.50;20.00
65574;PMS5003;52216;54.942;73.394;2023-05-15T05:18:07;38.25;31.50;20.00
65574;PMS5003;52216;54.942;73.394;2023-05-15T05:21:09;36.00;30.00;19.00
65574;PMS5003;52216;54.942;73.394;2023-05-15T05:24:12;39.00;32.60;20.60
65574;PMS5003;52216;54.942;73.394;2023-05-15T05:27:15;37.00;31.60;19.00
65574;PMS5003;52216;54.942;73.394;2023-05-15T05:30:17;37.00;31.00;20.00
65574;PMS5003;52216;54.942;73.394;2023-05-15T05:33:21;42.00;32.60;20.00
65574;PMS5003;52216;54.942;73.394;2023-05-15T05:36:23;41.00;34.00;21.00
65574;PMS5003;52216;54.942;73.394;2023-05-15T05:39:26;42.60;32.60;20.20
65574;PMS5003;52216;54.942;73.394;2023-05-15T05:42:28;41.00;33.00;20.00
65574;PMS5003;52216;54.942;73.394;2023-05-15T05:45:31;41.40;34.20;21.20
65574;PMS5003;52216;54.942;73.394;2023-05-15T05:48:33;47.00;38.00;23.00
65574;PMS5003;52216;54.942;73.394;2023-05-15T05:51:36;43.75;35.00;20.50
65574;PMS5003;52216;54.942;73.394;2023-05-15T05:54:39;44.67;34.00;21.00
65574;PMS5003;52216;54.942;73.394;2023-05-15T05:57:43;42.00;34.40;21.00
65574;PMS5003;52216;54.942;73.394;2023-05-15T06:00:46;41.00;32.60;20.20
65574;PMS5003;52216;54.942;73.394;2023-05-15T06:03:49;43.00;34.00;21.25
65574;PMS5003;52216;54.942;73.394;2023-05-15T06:06:53;40.00;32.60;19.00
65574;PMS5003;52216;54.942;73.394;2023-05-15T06:09:56;39.20;32.60;19.40
65574;PMS5003;52216;54.942;73.394;2023-05-15T06:12:58;41.00;34.75;21.00
65574;PMS5003;52216;54.942;73.394;2023-05-15T06:16:01;43.00;35.00;21.00
65574;PMS5003;52216;54.942;73.394;2023-05-15T06:19:04;38.60;33.00;20.00
65574;PMS5003;52216;54.942;73.394;2023-05-15T06:22:09;39.50;33.00;20.00
65574;PMS5003;52216;54.942;73.394;2023-05-15T06:25:11;40.25;33.00;21.00
65574;PMS5003;52216;54.942;73.394;2023-05-15T06:28:15;42.25;34.25;21.00
65574;PMS5003;52216;54.942;73.394;2023-05-15T06:31:17;39.00;33.00;20.50
65574;PMS5003;52216;54.942;73.394;2023-05-15T06:34:21;36.00;31.20;20.00
65574;PMS5003;52216;54.942;73.394;2023-05-15T06:37:23;37.50;32.00;19.25
65574;PMS5003;52216;54.942;73.394;2023-05-15T06:40:25;38.75;32.00;19.00
65574;PMS5003;52216;54.942;73.394;2023-05-15T06:43:28;36.60;31.00;19.40
65574;PMS5003;52216;54.942;73.394;2023-05-15T06:46:32;31.20;27.00;18.60
65574;PMS5003;52216;54.942;73.394;2023-05-15T06:49:34;28.00;25.50;17.00
65574;PMS5003;52216;54.942;73.394;2023-05-15T06:52:38;31.00;27.00;17.00
65574;PMS5003;52216;54.942;73.394;2023-05-15T06:55:41;32.75;28.50;18.00
65574;PMS5003;52216;54.942;73.394;2023-05-15T06:58:43;39.25;30.00;20.00
65574;PMS5003;52216;54.942;73.394;2023-05-15T07:01:45;40.25;33.00;20.00
65574;PMS5003;52216;54.942;73.394;2023-05-15T07:04:48;37.00;31.00;20.00
65574;PMS5003;52216;54.942;73.394;2023-05-15T07:07:50;34.25;30.00;18.50
65574;PMS5003;52216;54.942;73.394;2023-05-15T07:10:52;29.50;28.25;17.25
65574;PMS5003;52216;54.942;73.394;2023-05-15T07:13:59;26.60;25.00;16.00
65574;PMS5003;52216;54.942;73.394;2023-05-15T07:17:03;26.60;26.20;16.00
65574;PMS5003;52216;54.942;73.394;2023-05-15T07:20:17;28.00;26.50;16.00
65574;PMS5003;52216;54.942;73.394;2023-05-15T07:23:18;28.75;27.25;15.00
65574;PMS5003;52216;54.942;73.394;2023-05-15T07:26:21;27.00;27.00;15.00
65574;PMS5003;52216;54.942;73.394;2023-05-15T07:29:23;26.50;26.50;16.00
65574;PMS5003;52216;54.942;73.394;2023-05-15T07:32:26;30.00;27.50;17.00
65574;PMS5003;52216;54.942;73.394;2023-05-15T07:35:28;26.50;24.00;15.00
65574;PMS5003;52216;54.942;73.394;2023-05-15T07:38:30;24.50;22.00;14.25
65574;PMS5003;52216;54.942;73.394;2023-05-15T07:41:33;23.20;23.00;13.00
65574;PMS5003;52216;54.942;73.394;2023-05-15T07:44:36;24.80;22.00;12.00
65574;PMS5003;52216;54.942;73.394;2023-05-15T07:47:43;22.00;19.00;9.00
65574;PMS5003;52216;54.942;73.394;2023-05-15T07:50:46;21.00;21.00;9.00
65574;PMS5003;52216;54.942;73.394;2023-05-15T07:53:48;22.00;20.00;8.33
65574;PMS5003;52216;54.942;73.394;2023-05-15T07:56:50;25.33;23.00;11.67
65574;PMS5003;52216;54.942;73.394;2023-05-15T07:59:55;26.60;24.80;14.00
65574;PMS5003;52216;54.942;73.394;2023-05-15T08:02:59;26.83;25.00;15.50
65574;PMS5003;52216;54.942;73.394;2023-05-15T08:06:01;29.50;28.00;16.75
65574;PMS5003;52216;54.942;73.394;2023-05-15T08:09:03;33.75;29.50;18.00
65574;PMS5003;52216;54.942;73.394;2023-05-15T08:12:15;34.00;29.50;19.00
65574;PMS5003;52216;54.942;73.394;2023-05-15T08:15:23;33.00;29.50;18.00
65574;PMS5003;52216;54.942;73.394;2023-05-15T08:18:25;26.00;26.00;16.00
65574;PMS5003;52216;54.942;73.394;2023-05-15T08:21:29;29.60;27.40;16.40
65574;PMS5003;52216;54.942;73.394;2023-05-15T08:25:02;26.00;24.00;14.33
65574;PMS5003;52216;54.942;73.394;2023-05-15T08:28:08;29.50;26.00;16.25
65574;PMS5003;52216;54.942;73.394;2023-05-15T08:31:12;30.80;27.00;15.00
65574;PMS5003;52216;54.942;73.394;2023-05-15T08:34:15;34.80;28.00;15.60
65574;PMS5003;52216;54.942;73.394;2023-05-15T08:37:18;39.00;31.50;18.25
65574;PMS5003;52216;54.942;73.394;2023-05-15T08:40:41;33.00;30.00;18.00
65574;PMS5003;52216;54.942;73.394;2023-05-15T08:43:46;34.25;29.75;18.00
65574;PMS5003;52216;54.942;73.394;2023-05-15T08:46:52;33.00;29.50;18.00
65574;PMS5003;52216;54.942;73.394;2023-05-15T08:52:56;31.75;28.50;18.00
65574;PMS5003;52216;54.942;73.394;2023-05-15T08:56:01;34.50;30.50;18.50
65574;PMS5003;52216;54.942;73.394;2023-05-15T08:59:03;35.50;33.00;21.00
65574;PMS5003;52216;54.942;73.394;2023-05-15T09:02:06;37.75;33.00;20.00
65574;PMS5003;52216;54.942;73.394;2023-05-15T09:05:08;35.75;31.00;19.00
65574;PMS5003;52216;54.942;73.394;2023-05-15T09:08:12;33.00;30.00;19.00
65574;PMS5003;52216;54.942;73.394;2023-05-15T09:11:16;35.60;31.00;19.00
65574;PMS5003;52216;54.942;73.394;2023-05-15T09:14:18;39.75;33.75;20.00
65574;PMS5003;52216;54.942;73.394;2023-05-15T09:17:28;39.00;34.00;20.00
65574;PMS5003;52216;54.942;73.394;2023-05-15T09:20:32;38.60;33.00;20.00
65574;PMS5003;52216;54.942;73.394;2023-05-15T09:23:35;33.20;29.20;19.60
65574;PMS5003;52216;54.942;73.394;2023-05-15T09:26:38;35.00;31.50;19.25
65574;PMS5003;52216;54.942;73.394;2023-05-15T09:29:40;40.50;33.25;20.00
65574;PMS5003;52216;54.942;73.394;2023-05-15T09:32:42;36.25;31.00;21.00
65574;PMS5003;52216;54.942;73.394;2023-05-15T09:35:45;34.00;31.00;18.50
65574;PMS5003;52216;54.942;73.394;2023-05-15T09:38:47;35.75;30.00;19.00
65574;PMS5003;52216;54.942;73.394;2023-05-15T09:41:51;36.80;32.20;19.00
65574;PMS5003;52216;54.942;73.394;2023-05-15T09:44:54;41.00;33.00;20.00
65574;PMS5003;52216;54.942;73.394;2023-05-15T09:47:58;42.75;33.50;21.00
65574;PMS5003;52216;54.942;73.394;2023-05-15T09:51:01;44.50;36.00;22.00
65574;PMS5003;52216;54.942;73.394;2023-05-15T09:54:04;44.00;35.00;22.00
65574;PMS5003;52216;54.942;73.394;2023-05-15T09:57:07;44.00;36.25;22.00
65574;PMS5003;52216;54.942;73.394;2023-05-15T10:00:09;45.50;36.75;22.00
65574;PMS5003;52216;54.942;73.394;2023-05-15T10:03:14;49.00;38.50;24.00
65574;PMS5003;52216;54.942;73.394;2023-05-15T10:06:18;49.60;38.00;24.20
65574;PMS5003;52216;54.942;73.394;2023-05-15T10:09:20;47.00;38.00;24.00
65574;PMS5003;52216;54.942;73.394;2023-05-15T10:12:24;49.75;39.00;24.00
65574;PMS5003;52216;54.942;73.394;2023-05-15T10:15:27;49.00;39.00;24.00
65574;PMS5003;52216;54.942;73.394;2023-05-15T10:18:30;50.00;39.00;25.00
65574;PMS5003;52216;54.942;73.394;2023-05-15T10:21:35;45.75;39.00;25.00
65574;PMS5003;52216;54.942;73.394;2023-05-15T10:24:38;45.00;37.00;24.00
65574;PMS5003;52216;54.942;73.394;2023-05-15T10:27:42;48.50;39.00;25.00
65574;PMS5003;52216;54.942;73.394;2023-05-15T10:30:44;51.25;39.00;24.75
65574;PMS5003;52216;54.942;73.394;2023-05-15T10:33:47;49.50;39.00;24.50
65574;PMS5003;52216;54.942;73.394;2023-05-15T10:36:52;50.00;40.00;25.00
65574;PMS5003;52216;54.942;73.394;2023-05-15T10:39:55;50.50;40.00;25.00
65574;PMS5003;52216;54.942;73.394;2023-05-15T10:42:58;50.00;40.00;25.00
65574;PMS5003;52216;54.942;73.394;2023-05-15T10:46:03;47.00;39.00;25.00
65574;PMS5003;52216;54.942;73.394;2023-05-15T10:49:05;45.00;37.00;24.00
65574;PMS5003;52216;54.942;73.394;2023-05-15T10:52:08;47.40;38.60;24.00
65574;PMS5003;52216;54.942;73.394;2023-05-15T10:55:15;52.75;42.00;26.00
65574;PMS5003;52216;54.942;73.394;2023-05-15T10:58:22;50.00;40.00;25.00
65574;PMS5003;52216;54.942;73.394;2023-05-15T11:01:28;52.00;42.00;26.00
65574;PMS5003;52216;54.942;73.394;2023-05-15T11:04:32;52.00;42.00;25.00
65574;PMS5003;52216;54.942;73.394;2023-05-15T11:07:35;53.25;43.25;26.00
65574;PMS5003;52216;54.942;73.394;2023-05-15T11:10:38;53.25;42.75;26.00
65574;PMS5003;52216;54.942;73.394;2023-05-15T11:17:09;49.00;40.00;24.00
65574;PMS5003;52216;54.942;73.394;2023-05-15T11:20:12;52.25;41.50;26.00
65574;PMS5003;52216;54.942;73.394;2023-05-15T11:23:14;52.00;42.00;26.00
65574;PMS5003;52216;54.942;73.394;2023-05-15T11:26:42;48.33;38.33;24.67
65574;PMS5003;52216;54.942;73.394;2023-05-15T11:33:07;53.75;43.00;27.00
65574;PMS5003;52216;54.942;73.394;2023-05-15T11:36:14;55.80;42.80;27.00
65574;PMS5003;52216;54.942;73.394;2023-05-15T11:39:16;56.75;44.50;27.75
65574;PMS5003;52216;54.942;73.394;2023-05-15T11:42:24;58.00;45.50;28.00
65574;PMS5003;52216;54.942;73.394;2023-05-15T11:45:27;57.50;46.00;28.00
65574;PMS5003;52216;54.942;73.394;2023-05-15T11:48:38;57.00;44.00;28.00
65574;PMS5003;52216;54.942;73.394;2023-05-15T11:51:40;58.00;45.50;28.00
65574;PMS5003;52216;54.942;73.394;2023-05-15T11:54:44;57.00;45.00;28.50
65574;PMS5003;52216;54.942;73.394;2023-05-15T11:57:48;60.75;47.00;29.50
65574;PMS5003;52216;54.942;73.394;2023-05-15T12:00:51;57.50;45.50;29.00
65574;PMS5003;52216;54.942;73.394;2023-05-15T12:03:53;60.00;47.75;30.00
65574;PMS5003;52216;54.942;73.394;2023-05-15T12:06:55;56.50;46.00;29.00
65574;PMS5003;52216;54.942;73.394;2023-05-15T12:09:58;57.00;45.00;28.50
65574;PMS5003;52216;54.942;73.394;2023-05-15T12:13:00;56.50;44.50;29.00
65574;PMS5003;52216;54.942;73.394;2023-05-15T12:16:02;56.00;45.00;28.00
65574;PMS5003;52216;54.942;73.394;2023-05-15T12:19:05;63.00;48.50;29.50
65574;PMS5003;52216;54.942;73.394;2023-05-15T12:22:07;58.50;45.75;29.00
65574;PMS5003;52216;54.942;73.394;2023-05-15T12:25:11;56.50;45.00;28.00
65574;PMS5003;52216;54.942;73.394;2023-05-15T12:28:14;55.00;44.00;27.00
65574;PMS5003;52216;54.942;73.394;2023-05-15T12:31:16;56.25;44.00;27.00
65574;PMS5003;52216;54.942;73.394;2023-05-15T12:34:19;55.50;42.50;26.00
65574;PMS5003;52216;54.942;73.394;2023-05-15T12:37:21;54.25;42.50;26.75
65574;PMS5003;52216;54.942;73.394;2023-05-15T12:40:23;54.75;44.00;28.00
65574;PMS5003;52216;54.942;73.394;2023-05-15T12:43:26;56.50;45.50;28.50
65574;PMS5003;52216;54.942;73.394;2023-05-15T12:46:28;56.25;45.00;28.00
65574;PMS5003;52216;54.942;73.394;2023-05-15T12:49:34;57.25;45.00;28.50
65574;PMS5003;52216;54.942;73.394;2023-05-15T12:52:37;59.00;46.20;28.80
65574;PMS5003;52216;54.942;73.394;2023-05-15T12:55:40;60.60;48.80;29.60
65574;PMS5003;52216;54.942;73.394;2023-05-15T12:58:43;60.00;48.00;29.00
65574;PMS5003;52216;54.942;73.394;2023-05-15T13:01:45;59.50;47.25;29.25
65574;PMS5003;52216;54.942;73.394;2023-05-15T13:04:48;58.00;46.75;30.00
65574;PMS5003;52216;54.942;73.394;2023-05-15T13:07:50;59.50;47.75;31.00
65574;PMS5003;52216;54.942;73.394;2023-05-15T13:10:57;58.00;46.00;30.00
65574;PMS5003;52216;54.942;73.394;2023-05-15T13:13:59;60.50;47.75;30.50
65574;PMS5003;52216;54.942;73.394;2023-05-15T13:17:04;61.00;48.00;29.50
65574;PMS5003;52216;54.942;73.394;2023-05-15T13:20:07;61.00;49.00;30.00
65574;PMS5003;52216;54.942;73.394;2023-05-15T13:23:13;56.25;45.75;29.00
65574;PMS5003;52216;54.942;73.394;2023-05-15T13:26:17;57.50;45.50;29.00
65574;PMS5003;52216;54.942;73.394;2023-05-15T13:29:19;57.00;44.75;28.00
65574;PMS5003;52216;54.942;73.394;2023-05-15T13:32:21;55.00;44.50;27.50
65574;PMS5003;52216;54.942;73.394;2023-05-15T13:35:23;57.00;46.00;28.25
65574;PMS5003;52216;54.942;73.394;2023-05-15T13:38:26;57.25;45.50;29.00
65574;PMS5003;52216;54.942;73.394;2023-05-15T13:41:28;59.75;46.75;30.00
65574;PMS5003;52216;54.942;73.394;2023-05-15T13:44:31;59.50;47.00;30.50
65574;PMS5003;52216;54.942;73.394;2023-05-15T13:47:35;55.25;44.00;28.00
65574;PMS5003;52216;54.942;73.394;2023-05-15T13:50:37;59.00;45.00;29.00
65574;PMS5003;52216;54.942;73.394;2023-05-15T13:53:40;58.25;44.50;28.25
65574;PMS5003;52216;54.942;73.394;2023-05-15T13:56:42;55.00;43.00;28.00
65574;PMS5003;52216;54.942;73.394;2023-05-15T13:59:45;53.75;42.75;27.50
65574;PMS5003;52216;54.942;73.394;2023-05-15T14:02:47;57.00;45.50;29.00
65574;PMS5003;52216;54.942;73.394;2023-05-15T14:05:49;58.00;45.50;29.00
65574;PMS5003;52216;54.942;73.394;2023-05-15T14:08:53;58.00;46.00;28.00
65574;PMS5003;52216;54.942;73.394;2023-05-15T14:11:55;61.50;48.00;29.75
65574;PMS5003;52216;54.942;73.394;2023-05-15T14:14:57;59.00;47.50;29.50
65574;PMS5003;52216;54.942;73.394;2023-05-15T14:17:59;59.00;46.50;30.00
65574;PMS5003;52216;54.942;73.394;2023-05-15T14:21:01;57.00;45.25;29.00
65574;PMS5003;52216;54.942;73.394;2023-05-15T14:24:03;57.00;45.00;29.00
65574;PMS5003;52216;54.942;73.394;2023-05-15T14:27:06;55.50;44.00;27.50
65574;PMS5003;52216;54.942;73.394;2023-05-15T14:30:08;53.50;44.50;27.50
65574;PMS5003;52216;54.942;73.394;2023-05-15T14:33:10;56.00;43.00;27.00
65574;PMS5003;52216;54.942;73.394;2023-05-15T14:36:12;56.50;44.00;27.50
65574;PMS5003;52216;54.942;73.394;2023-05-15T14:39:14;56.00;43.50;26.75
65574;PMS5003;52216;54.942;73.394;2023-05-15T14:42:18;56.25;43.25;27.00
65574;PMS5003;52216;54.942;73.394;2023-05-15T14:45:21;52.25;41.00;25.00
65574;PMS5003;52216;54.942;73.394;2023-05-15T14:48:23;31.00;24.50;15.00
65574;PMS5003;52216;54.942;73.394;2023-05-15T14:51:25;46.25;38.00;24.50
65574;PMS5003;52216;54.942;73.394;2023-05-15T14:54:31;46.50;38.00;24.00
65574;PMS5003;52216;54.942;73.394;2023-05-15T14:57:33;44.75;36.00;22.00
65574;PMS5003;52216;54.942;73.394;2023-05-15T15:00:38;45.25;36.00;22.00
65574;PMS5003;52216;54.942;73.394;2023-05-15T15:03:47;45.00;36.00;23.00
65574;PMS5003;52216;54.942;73.394;2023-05-15T15:06:52;45.00;37.00;23.00
65574;PMS5003;52216;54.942;73.394;2023-05-15T15:09:57;46.00;36.25;23.75
65574;PMS5003;52216;54.942;73.394;2023-05-15T15:12:59;45.00;36.00;23.00
65574;PMS5003;52216;54.942;73.394;2023-05-15T15:16:03;45.00;37.00;23.00
65574;PMS5003;52216;54.942;73.394;2023-05-15T15:19:06;46.00;37.50;24.00
65574;PMS5003;52216;54.942;73.394;2023-05-15T15:22:08;43.00;35.00;22.00
65574;PMS5003;52216;54.942;73.394;2023-05-15T15:25:11;42.20;34.00;20.40
65574;PMS5003;52216;54.942;73.394;2023-05-15T15:28:17;43.00;35.00;22.00
65574;PMS5003;52216;54.942;73.394;2023-05-15T15:31:19;43.00;35.75;22.00
65574;PMS5003;52216;54.942;73.394;2023-05-15T15:34:21;40.50;33.50;20.00
65574;PMS5003;52216;54.942;73.394;2023-05-15T15:37:31;40.75;34.00;21.75
65574;PMS5003;52216;54.942;73.394;2023-05-15T15:40:34;42.00;33.75;22.00
65574;PMS5003;52216;54.942;73.394;2023-05-15T15:43:37;48.00;38.50;23.75
65574;PMS5003;52216;54.942;73.394;2023-05-15T15:46:39;48.00;39.00;24.25
65574;PMS5003;52216;54.942;73.394;2023-05-15T15:49:43;50.60;40.60;25.00
65574;PMS5003;52216;54.942;73.394;2023-05-15T15:52:46;48.20;39.00;24.00
65574;PMS5003;52216;54.942;73.394;2023-05-15T15:55:48;46.00;36.00;22.00
65574;PMS5003;52216;54.942;73.394;2023-05-15T15:58:52;44.40;36.40;23.40
65574;PMS5003;52216;54.942;73.394;2023-05-15T16:01:54;44.50;36.00;23.00
65574;PMS5003;52216;54.942;73.394;2023-05-15T16:04:56;44.75;36.25;23.00
65574;PMS5003;52216;54.942;73.394;2023-05-15T16:07:58;44.50;35.00;22.00
65574;PMS5003;52216;54.942;73.394;2023-05-15T16:11:00;44.50;34.00;21.00
65574;PMS5003;52216;54.942;73.394;2023-05-15T16:14:04;43.00;34.00;21.40
65574;PMS5003;52216;54.942;73.394;2023-05-15T16:17:06;44.00;34.25;22.00
65574;PMS5003;52216;54.942;73.394;2023-05-15T16:20:08;45.25;36.00;22.00
65574;PMS5003;52216;54.942;73.394;2023-05-15T16:23:12;45.20;36.00;22.00
65574;PMS5003;52216;54.942;73.394;2023-05-15T16:26:15;45.50;36.00;22.00
65574;PMS5003;52216;54.942;73.394;2023-05-15T16:29:19;45.00;36.00;23.00
65574;PMS5003;52216;54.942;73.394;2023-05-15T16:32:21;46.00;35.00;21.00
65574;PMS5003;52216;54.942;73.394;2023-05-15T16:35:23;42.50;34.00;20.00
65574;PMS5003;52216;54.942;73.394;2023-05-15T16:38:25;42.50;35.00;20.00
65574;PMS5003;52216;54.942;73.394;2023-05-15T16:41:27;42.50;34.00;21.00
65574;PMS5003;52216;54.942;73.394;2023-05-15T16:44:29;41.75;34.00;22.00
65574;PMS5003;52216;54.942;73.394;2023-05-15T16:47:31;42.75;35.50;22.00
65574;PMS5003;52216;54.942;73.394;2023-05-15T16:50:35;44.00;36.00;21.00
65574;PMS5003;52216;54.942;73.394;2023-05-15T16:53:37;43.50;36.00;21.00
65574;PMS5003;52216;54.942;73.394;2023-05-15T16:56:40;42.50;34.00;20.00
65574;PMS5003;52216;54.942;73.394;2023-05-15T16:59:43;42.00;35.00;21.00
65574;PMS5003;52216;54.942;73.394;2023-05-15T17:02:45;41.00;33.00;20.75
65574;PMS5003;52216;54.942;73.394;2023-05-15T17:05:47;42.75;34.50;20.75
65574;PMS5003;52216;54.942;73.394;2023-05-15T17:08:55;42.00;33.00;22.00
65574;PMS5003;52216;54.942;73.394;2023-05-15T17:11:58;42.00;34.60;22.00
65574;PMS5003;52216;54.942;73.394;2023-05-15T17:15:03;42.80;35.00;22.00
65574;PMS5003;52216;54.942;73.394;2023-05-15T17:18:09;44.50;35.00;22.00